Time;durP1;ratioP1;P1;durP2;ratioP2;P2;SDS_P1;SDS_P2;PMS_P1;PMS_P2;Temp;Humidity;BMP_temperature;BMP_pressure;BME280_temperature;BME280_humidity;BME280_pressure;Samples;Min_cycle;Max_cycle;Signal;HPM_P1;HPM_P2
2021/12/31 00:00:29;;;;;;;12.13;3.13;;;12.50;99.90;;;;;;5063346;28;20036;-71
2021/12/31 00:02:54;;;;;;;10.52;2.50;;;12.50;99.90;;;;;;5076488;28;20035;-71
2021/12/31 00:05:20;;;;;;;10.23;2.90;;;12.60;99.90;;;;;;5084744;28;20036;-71
2021/12/31 00:07:46;;;;;;;12.70;2.63;;;12.60;99.90;;;;;;5074572;28;20066;-71
2021/12/31 00:10:12;;;;;;;14.52;3.65;;;12.60;99.90;;;;;;5081135;28;20050;-72
2021/12/31 00:12:40;;;;;;;11.38;2.60;;;12.60;99.90;;;;;;5076620;28;20567;-71
2021/12/31 00:15:07;;;;;;;9.35;2.03;;;12.60;99.90;;;;;;5083793;28;20483;-71
2021/12/31 00:17:33;;;;;;;13.88;3.15;;;12.60;99.90;;;;;;5101733;28;20044;-71
2021/12/31 00:20:08;;;;;;;8.02;2.83;;;12.70;99.90;;;;;;5081938;28;20384;-71
2021/12/31 00:25:19;;;;;;;10.32;2.30;;;12.70;99.90;;;;;;5093431;28;20032;-71
2021/12/31 00:27:45;;;;;;;15.00;2.50;;;12.70;99.90;;;;;;5081498;28;20089;-71
2021/12/31 00:30:11;;;;;;;10.82;2.50;;;12.70;99.90;;;;;;5080459;28;20040;-71
2021/12/31 00:32:37;;;;;;;9.93;2.35;;;12.40;99.90;;;;;;5067312;28;20403;-71
2021/12/31 00:35:04;;;;;;;9.10;2.53;;;12.70;99.90;;;;;;5080288;28;20048;-71
2021/12/31 00:37:35;;;;;;;13.40;2.63;;;12.70;99.90;;;;;;5077889;28;20814;-71
2021/12/31 00:40:04;;;;;;;;;;;12.70;99.90;;;;;;5080500;28;20046;-71
2021/12/31 00:42:29;;;;;;;8.32;2.40;;;12.70;99.90;;;;;;5096597;28;19962;-71
2021/12/31 00:44:55;;;;;;;11.32;2.72;;;12.70;99.90;;;;;;5078623;28;20140;-71
2021/12/31 00:47:21;;;;;;;10.70;2.45;;;12.80;99.90;;;;;;5079301;28;20035;-71
2021/12/31 00:49:47;;;;;;;12.32;3.53;;;12.70;99.90;;;;;;5080962;28;20051;-71
2021/12/31 00:52:14;;;;;;;12.48;2.85;;;12.70;99.90;;;;;;5089228;28;20049;-71
2021/12/31 00:54:39;;;;;;;13.02;2.60;;;12.70;99.90;;;;;;5082931;28;20448;-71
2021/12/31 00:57:06;;;;;;;14.63;3.45;;;12.70;99.90;;;;;;5080696;28;20123;-71
2021/12/31 00:59:32;;;;;;;10.20;3.00;;;12.70;99.90;;;;;;5082715;28;20036;-71
2021/12/31 01:02:04;;;;;;;15.20;3.80;;;12.70;99.90;;;;;;5045146;28;20047;-71
2021/12/31 01:04:31;;;;;;;9.65;3.20;;;12.70;99.90;;;;;;5078954;28;20063;-71
2021/12/31 01:06:57;;;;;;;12.70;3.58;;;12.70;99.90;;;;;;5078784;28;20054;-72
2021/12/31 01:09:23;;;;;;;12.15;4.05;;;12.80;99.90;;;;;;5083688;28;20442;-71
2021/12/31 01:11:49;;;;;;;17.27;3.83;;;12.70;99.90;;;;;;5083344;28;20036;-71
2021/12/31 01:14:37;;;;;;;15.23;3.90;;;12.70;99.90;;;;;;5083208;28;20055;-72
2021/12/31 01:17:07;;;;;;;12.70;3.88;;;12.70;99.90;;;;;;5080481;28;20036;-71
2021/12/31 01:19:46;;;;;;;11.88;3.63;;;12.80;99.90;;;;;;5087155;28;20031;-71
2021/12/31 01:22:26;;;;;;;12.63;3.90;;;12.80;99.90;;;;;;5088356;28;20036;-71
2021/12/31 01:24:52;;;;;;;13.13;4.10;;;12.80;99.90;;;;;;5082021;28;20071;-71
2021/12/31 01:27:18;;;;;;;11.98;3.95;;;12.70;99.90;;;;;;5085083;28;20040;-71
2021/12/31 01:29:44;;;;;;;13.38;3.53;;;12.70;99.90;;;;;;5105357;28;20051;-71
2021/12/31 01:32:11;;;;;;;13.20;3.53;;;12.70;99.90;;;;;;5089413;28;20422;-71
2021/12/31 01:34:38;;;;;;;11.75;3.67;;;12.70;99.90;;;;;;5085345;28;20074;-71
2021/12/31 01:37:04;;;;;;;9.90;3.40;;;12.70;99.90;;;;;;5105997;28;20039;-71
2021/12/31 01:39:30;;;;;;;11.40;2.95;;;12.60;99.90;;;;;;5102510;28;20440;-71
2021/12/31 01:41:58;;;;;;;15.80;4.40;;;12.70;99.90;;;;;;5085167;28;20486;-71
2021/12/31 01:44:33;;;;;;;10.73;3.30;;;12.70;99.90;;;;;;5069636;28;20043;-71
2021/12/31 01:47:04;;;;;;;13.90;3.80;;;12.60;99.90;;;;;;5086461;28;20043;-71
2021/12/31 01:49:35;;;;;;;16.42;3.20;;;12.60;99.90;;;;;;5082062;28;20251;-71
2021/12/31 01:52:02;;;;;;;8.98;3.33;;;12.70;99.90;;;;;;5087144;28;20067;-71
2021/12/31 01:54:33;;;;;;;16.35;3.38;;;12.60;99.90;;;;;;5054905;28;20083;-71
2021/12/31 01:57:01;;;;;;;15.77;3.85;;;12.60;99.90;;;;;;5080345;28;20131;-71
2021/12/31 01:59:28;;;;;;;14.18;3.30;;;12.60;99.90;;;;;;5087384;28;20043;-71
2021/12/31 02:01:55;;;;;;;11.68;3.38;;;12.70;99.90;;;;;;5086341;28;20048;-71
2021/12/31 02:04:21;;;;;;;11.23;3.10;;;12.60;99.90;;;;;;5077573;28;20048;-71
2021/12/31 02:06:47;;;;;;;12.23;3.58;;;12.60;99.90;;;;;;5082460;28;20252;-71
2021/12/31 02:09:13;;;;;;;9.90;3.30;;;12.60;99.90;;;;;;5096799;28;20514;-71
2021/12/31 02:11:39;;;;;;;10.98;2.85;;;12.60;99.90;;;;;;5098249;28;20043;-71
2021/12/31 02:14:06;;;;;;;15.70;2.90;;;12.60;99.90;;;;;;5068614;28;20087;-71
2021/12/31 02:16:32;;;;;;;9.60;2.70;;;12.60;99.90;;;;;;5068868;28;20146;-71
2021/12/31 02:19:09;;;;;;;13.43;3.05;;;12.60;99.90;;;;;;5083940;28;20039;-71
2021/12/31 02:21:35;;;;;;;10.90;2.25;;;12.60;99.90;;;;;;5084550;28;20043;-71
2021/12/31 02:24:05;;;;;;;11.10;2.58;;;12.60;99.90;;;;;;5086261;28;20044;-71
2021/12/31 02:26:31;;;;;;;10.75;2.92;;;12.60;99.90;;;;;;5080459;28;20040;-71
2021/12/31 02:28:57;;;;;;;10.23;2.78;;;12.60;99.90;;;;;;5085778;28;20039;-71
2021/12/31 02:31:23;;;;;;;14.80;2.97;;;12.60;99.90;;;;;;5078286;28;20040;-71
2021/12/31 02:33:50;;;;;;;8.10;2.67;;;12.60;99.90;;;;;;5104446;28;20073;-72
2021/12/31 02:36:16;;;;;;;13.73;2.67;;;12.70;99.90;;;;;;5083155;28;20101;-71
2021/12/31 02:38:44;;;;;;;7.93;2.80;;;12.70;99.90;;;;;;5082623;28;20447;-71
2021/12/31 02:41:10;;;;;;;8.88;2.70;;;12.70;99.90;;;;;;5077808;28;20480;-71
2021/12/31 02:43:38;;;;;;;11.52;3.85;;;12.80;99.90;;;;;;5100421;28;20066;-72
2021/12/31 02:46:04;;;;;;;9.23;3.70;;;12.80;99.90;;;;;;5081706;28;20043;-71
2021/12/31 02:48:30;;;;;;;8.20;3.50;;;12.80;99.90;;;;;;5105529;28;20123;-71
2021/12/31 02:50:58;;;;;;;8.15;3.65;;;12.80;99.90;;;;;;5100428;28;20452;-71
2021/12/31 02:53:38;;;;;;;5.32;2.92;;;12.80;99.90;;;;;;5079524;28;20122;-71
2021/12/31 02:56:12;;;;;;;8.48;3.10;;;12.90;99.90;;;;;;5103216;28;20043;-70
2021/12/31 02:58:39;;;;;;;8.68;3.05;;;12.80;99.90;;;;;;5094574;28;20035;-71
2021/12/31 03:01:07;;;;;;;9.52;3.08;;;12.90;99.90;;;;;;5081167;28;20054;-71
2021/12/31 03:03:34;;;;;;;8.55;2.85;;;12.90;99.90;;;;;;5099690;28;20128;-71
2021/12/31 03:06:01;;;;;;;11.05;3.17;;;12.90;99.90;;;;;;5078430;28;20317;-71
2021/12/31 03:08:32;;;;;;;10.65;3.58;;;12.90;99.90;;;;;;5069809;28;20071;-71
2021/12/31 03:11:00;;;;;;;14.00;4.28;;;12.90;99.90;;;;;;5081754;28;20097;-71
2021/12/31 03:13:28;;;;;;;7.95;3.20;;;13.00;99.90;;;;;;5085489;28;20043;-71
2021/12/31 03:15:54;;;;;;;11.30;3.47;;;12.90;99.90;;;;;;5086756;28;20035;-71
2021/12/31 03:18:20;;;;;;;8.77;3.03;;;12.90;99.90;;;;;;5081722;28;20058;-72
2021/12/31 03:21:00;;;;;;;8.50;2.85;;;12.90;99.90;;;;;;5064768;28;20040;-71
2021/12/31 03:23:26;;;;;;;7.55;3.95;;;13.00;99.90;;;;;;5083897;28;20055;-73
2021/12/31 03:25:52;;;;;;;7.85;3.72;;;13.00;99.90;;;;;;5082449;28;20043;-71
2021/12/31 03:28:19;;;;;;;6.88;4.03;;;13.00;99.90;;;;;;5086025;28;20053;-71
2021/12/31 03:30:45;;;;;;;8.35;3.38;;;13.00;99.90;;;;;;5078995;28;20137;-71
2021/12/31 03:33:11;;;;;;;9.27;3.63;;;13.10;99.90;;;;;;5079307;28;20081;-70
2021/12/31 03:35:37;;;;;;;8.10;3.80;;;13.00;99.90;;;;;;5097484;28;20055;-71
2021/12/31 03:38:03;;;;;;;10.52;3.70;;;13.00;99.90;;;;;;5078085;28;20039;-71
2021/12/31 03:40:28;;;;;;;6.65;3.80;;;13.00;99.90;;;;;;5082809;28;20055;-71
2021/12/31 03:42:54;;;;;;;8.27;4.13;;;13.00;99.90;;;;;;5083857;28;20039;-71
2021/12/31 03:45:20;;;;;;;8.15;3.95;;;13.00;99.90;;;;;;5084853;28;20043;-70
2021/12/31 03:47:46;;;;;;;8.38;3.75;;;13.00;99.90;;;;;;5082566;28;20027;-71
2021/12/31 03:50:11;;;;;;;9.88;3.45;;;13.00;99.90;;;;;;5073703;28;20062;-70
2021/12/31 03:52:40;;;;;;;6.25;3.47;;;13.00;99.90;;;;;;5087803;28;20439;-71
2021/12/31 03:55:07;;;;;;;8.20;3.40;;;13.00;99.90;;;;;;5080909;28;20043;-72
2021/12/31 03:57:33;;;;;;;11.60;4.20;;;13.10;99.90;;;;;;5080158;28;20043;-71
2021/12/31 04:00:00;;;;;;;6.28;2.78;;;13.10;99.90;;;;;;5102402;28;20113;-71
2021/12/31 04:02:25;;;;;;;6.35;3.75;;;13.10;99.90;;;;;;5079096;28;20052;-71
2021/12/31 04:04:51;;;;;;;9.45;3.03;;;13.10;99.90;;;;;;5066878;28;20051;-71
2021/12/31 04:07:17;;;;;;;6.03;2.58;;;13.00;99.90;;;;;;5078518;28;20415;-71
2021/12/31 04:09:43;;;;;;;5.55;2.80;;;13.10;99.90;;;;;;5100385;28;20058;-70
2021/12/31 04:12:09;;;;;;;7.68;2.80;;;13.00;99.90;;;;;;5077470;28;20059;-71
2021/12/31 04:14:34;;;;;;;7.45;2.25;;;13.10;99.90;;;;;;5084938;28;20040;-71
2021/12/31 04:17:00;;;;;;;6.10;2.00;;;13.10;99.90;;;;;;5068660;28;20149;-71
2021/12/31 04:19:26;;;;;;;8.80;2.60;;;13.10;99.90;;;;;;5083369;28;20036;-71
2021/12/31 04:21:51;;;;;;;5.93;2.13;;;13.10;99.90;;;;;;5076154;28;20538;-70
2021/12/31 04:24:30;;;;;;;7.25;2.60;;;13.10;99.90;;;;;;5066846;28;20122;-71
2021/12/31 04:26:56;;;;;;;4.82;2.75;;;13.20;99.90;;;;;;5081966;28;20043;-70
2021/12/31 04:29:22;;;;;;;7.13;3.00;;;13.10;99.90;;;;;;5093830;28;20044;-70
2021/12/31 04:31:47;;;;;;;5.95;2.50;;;13.20;99.90;;;;;;5102675;28;20048;-71
2021/12/31 04:34:13;;;;;;;6.22;3.00;;;13.20;99.90;;;;;;5075853;28;20043;-70
2021/12/31 04:36:39;;;;;;;7.50;2.42;;;13.20;99.90;;;;;;5082899;28;20047;-71
2021/12/31 04:39:05;;;;;;;6.07;2.63;;;13.20;99.90;;;;;;5059137;28;20126;-71
2021/12/31 04:41:31;;;;;;;9.95;2.80;;;13.20;99.90;;;;;;5084682;28;20044;-71
2021/12/31 04:43:57;;;;;;;6.97;2.97;;;13.20;99.90;;;;;;5080112;28;20656;-71
2021/12/31 04:46:23;;;;;;;7.28;3.40;;;13.20;99.90;;;;;;5077810;28;20120;-71
2021/12/31 04:48:48;;;;;;;7.38;3.42;;;13.20;99.90;;;;;;5086863;28;20047;-71
2021/12/31 04:51:14;;;;;;;6.90;3.53;;;13.10;99.90;;;;;;5102045;28;20039;-70
2021/12/31 04:53:40;;;;;;;7.07;3.80;;;13.10;99.90;;;;;;5087865;28;20104;-70
2021/12/31 04:56:05;;;;;;;13.88;4.55;;;13.10;99.90;;;;;;5106907;27;20036;-71
2021/12/31 04:58:31;;;;;;;7.75;4.25;;;13.00;99.90;;;;;;5084392;28;20040;-71
2021/12/31 05:00:57;;;;;;;6.43;4.57;;;13.00;99.90;;;;;;5078229;28;20633;-71
2021/12/31 05:03:22;;;;;;;10.43;4.72;;;13.00;99.90;;;;;;5080300;28;20032;-71
2021/12/31 05:05:48;;;;;;;8.45;4.85;;;13.00;99.90;;;;;;5108371;28;20127;-71
2021/12/31 05:08:14;;;;;;;6.20;3.83;;;13.00;99.90;;;;;;5071174;28;20039;-71
2021/12/31 05:10:39;;;;;;;10.32;5.05;;;13.00;99.90;;;;;;5071383;28;20149;-71
2021/12/31 05:13:06;;;;;;;7.50;4.28;;;12.90;99.90;;;;;;5089126;28;20114;-71
2021/12/31 05:15:38;;;;;;;9.50;4.03;;;13.00;99.90;;;;;;5086830;28;20402;-72
2021/12/31 05:18:04;;;;;;;8.43;4.15;;;13.00;99.90;;;;;;5078483;28;20040;-71
2021/12/31 05:20:29;;;;;;;9.07;3.80;;;13.30;99.90;;;;;;5087445;28;20727;-70
2021/12/31 05:22:57;;;;;;;7.35;3.83;;;13.00;99.90;;;;;;5097685;28;20036;-70
2021/12/31 05:25:23;;;;;;;8.93;3.78;;;13.00;99.90;;;;;;5087158;28;20031;-70
2021/12/31 05:27:49;;;;;;;4.55;3.50;;;13.00;99.90;;;;;;5081541;28;20428;-71
2021/12/31 05:30:15;;;;;;;8.15;3.38;;;13.00;99.90;;;;;;5080083;28;20058;-71
2021/12/31 05:32:41;;;;;;;7.10;3.10;;;13.00;99.90;;;;;;5078208;28;20055;-71
2021/12/31 05:35:07;;;;;;;6.43;2.88;;;13.10;99.90;;;;;;5080347;28;20764;-71
2021/12/31 05:37:33;;;;;;;5.00;2.47;;;13.10;99.90;;;;;;5084333;28;20083;-70
2021/12/31 05:39:59;;;;;;;6.70;2.80;;;13.10;99.90;;;;;;5087454;28;20044;-71
2021/12/31 05:42:24;;;;;;;5.70;3.25;;;13.10;99.90;;;;;;5073343;28;20036;-71
2021/12/31 05:44:50;;;;;;;7.60;2.58;;;13.20;99.90;;;;;;5081637;28;20128;-71
2021/12/31 05:47:16;;;;;;;6.20;2.33;;;13.20;99.90;;;;;;5071445;28;20546;-70
2021/12/31 05:49:42;;;;;;;6.93;2.90;;;13.10;99.90;;;;;;5083001;28;20036;-71
2021/12/31 05:52:08;;;;;;;6.28;2.88;;;13.10;99.90;;;;;;5087985;28;20551;-70
2021/12/31 05:54:33;;;;;;;6.07;2.45;;;13.10;99.90;;;;;;5083908;28;20039;-70
2021/12/31 05:56:59;;;;;;;6.03;2.65;;;13.00;99.90;;;;;;5086499;28;20027;-70
2021/12/31 05:59:25;;;;;;;8.02;3.35;;;13.10;99.90;;;;;;5105363;28;20433;-71
2021/12/31 06:01:50;;;;;;;7.43;2.65;;;13.00;99.90;;;;;;5101505;28;20039;-71
2021/12/31 06:04:16;;;;;;;8.68;3.30;;;13.10;99.90;;;;;;5069965;28;20046;-71
2021/12/31 06:06:43;;;;;;;5.30;1.67;;;13.10;99.90;;;;;;5105059;28;20110;-71
2021/12/31 06:09:09;;;;;;;5.63;2.60;;;13.10;99.90;;;;;;5089150;28;20075;-71
2021/12/31 06:11:34;;;;;;;5.90;2.60;;;13.10;99.90;;;;;;5068015;28;20071;-71
2021/12/31 06:14:01;;;;;;;6.35;2.33;;;13.10;99.90;;;;;;5084767;28;20032;-71
2021/12/31 06:16:42;;;;;;;3.28;1.80;;;13.10;99.90;;;;;;5084215;28;20162;-73
2021/12/31 06:19:09;;;;;;;5.00;2.53;;;13.20;99.90;;;;;;5078723;28;20043;-72
2021/12/31 06:21:39;;;;;;;5.55;2.00;;;13.10;99.90;;;;;;5087561;28;20411;-71
2021/12/31 06:24:05;;;;;;;7.68;2.20;;;13.00;99.90;;;;;;5069188;28;20126;-71
2021/12/31 06:26:31;;;;;;;3.75;1.80;;;13.00;99.90;;;;;;5084516;28;20042;-71
2021/12/31 06:28:58;;;;;;;6.03;2.22;;;13.00;99.90;;;;;;5083153;28;20044;-71
2021/12/31 06:31:24;;;;;;;5.80;2.25;;;13.00;99.90;;;;;;5085031;28;20132;-71
2021/12/31 06:33:50;;;;;;;6.90;2.67;;;13.00;99.90;;;;;;5106847;28;20027;-70
2021/12/31 06:36:16;;;;;;;5.05;1.90;;;13.00;99.90;;;;;;5087403;28;20092;-70
2021/12/31 06:38:43;;;;;;;5.28;2.20;;;13.00;99.90;;;;;;5082242;28;20050;-70
2021/12/31 06:41:08;;;;;;;4.75;2.20;;;13.00;99.90;;;;;;5086723;28;20059;-70
2021/12/31 06:43:34;;;;;;;4.75;2.20;;;13.00;99.90;;;;;;5083096;28;20402;-70
2021/12/31 06:46:00;;;;;;;5.22;2.15;;;13.00;99.90;;;;;;5089950;28;20051;-70
2021/12/31 06:48:26;;;;;;;3.72;2.30;;;13.00;99.90;;;;;;5088440;28;20063;-70
2021/12/31 06:50:51;;;;;;;6.05;2.85;;;13.00;99.90;;;;;;5085538;28;20070;-70
2021/12/31 06:53:17;;;;;;;5.07;1.92;;;12.90;99.90;;;;;;5084667;28;20701;-70
2021/12/31 06:55:43;;;;;;;5.10;2.20;;;13.10;99.90;;;;;;5105991;27;20035;-70
2021/12/31 06:58:09;;;;;;;6.10;1.95;;;12.90;99.90;;;;;;5084468;28;20512;-72
2021/12/31 07:00:35;;;;;;;7.95;2.03;;;12.90;99.90;;;;;;5086833;28;20039;-71
2021/12/31 07:03:09;;;;;;;3.88;1.63;;;12.90;99.90;;;;;;5082637;28;20054;-71
2021/12/31 07:05:35;;;;;;;5.13;2.00;;;13.00;99.90;;;;;;5099434;28;20051;-70
2021/12/31 07:08:01;;;;;;;6.15;2.33;;;12.90;99.90;;;;;;5089824;28;20039;-70
2021/12/31 07:10:28;;;;;;;5.22;1.90;;;12.80;99.90;;;;;;5083093;28;20279;-70
2021/12/31 07:13:04;;;;;;;6.47;1.88;;;12.70;99.90;;;;;;5087993;28;20047;-70
2021/12/31 07:15:30;;;;;;;4.28;2.03;;;12.70;99.90;;;;;;5069962;28;20039;-70
2021/12/31 07:17:56;;;;;;;6.57;2.25;;;12.70;99.90;;;;;;5081834;28;20136;-70
2021/12/31 07:20:22;;;;;;;4.25;1.98;;;12.60;99.90;;;;;;5082952;28;20068;-70
2021/12/31 07:22:48;;;;;;;8.10;2.00;;;12.50;99.90;;;;;;5072749;28;20067;-70
2021/12/31 07:25:14;;;;;;;4.13;2.00;;;12.50;99.90;;;;;;5080918;28;20055;-70
2021/12/31 07:27:40;;;;;;;6.43;2.25;;;12.50;99.90;;;;;;5090477;28;20044;-70
2021/12/31 07:30:06;;;;;;;5.22;2.00;;;12.50;99.90;;;;;;5078796;28;20043;-70
2021/12/31 07:32:38;;;;;;;8.52;1.77;;;12.50;99.90;;;;;;5082805;28;20043;-70
2021/12/31 07:35:05;;;;;;;5.93;2.05;;;12.50;99.90;;;;;;5086273;28;20044;-70
2021/12/31 07:37:31;;;;;;;5.82;1.88;;;12.60;99.90;;;;;;5090612;28;20046;-70
2021/12/31 07:40:02;;;;;;;4.28;2.10;;;12.50;99.90;;;;;;5089663;28;20036;-70
2021/12/31 07:42:28;;;;;;;5.43;2.13;;;12.50;99.90;;;;;;5085920;28;20043;-70
2021/12/31 07:44:54;;;;;;;6.18;2.45;;;12.50;99.90;;;;;;5079537;28;20037;-70
2021/12/31 07:47:20;;;;;;;6.00;2.25;;;12.50;99.90;;;;;;5081986;28;20391;-70
2021/12/31 07:49:46;;;;;;;4.07;2.28;;;12.50;99.90;;;;;;5100914;28;20043;-70
2021/12/31 07:52:11;;;;;;;4.35;2.67;;;12.50;99.90;;;;;;5078507;28;20035;-70
2021/12/31 07:54:37;;;;;;;6.50;2.60;;;12.40;99.90;;;;;;5085068;28;20040;-70
2021/12/31 07:57:03;;;;;;;6.75;2.78;;;12.40;99.90;;;;;;5103310;28;20031;-70
2021/12/31 07:59:29;;;;;;;5.88;2.40;;;12.30;99.90;;;;;;5100858;28;20036;-70
2021/12/31 08:01:55;;;;;;;5.50;2.40;;;12.40;99.90;;;;;;5085034;28;20039;-70
2021/12/31 08:04:20;;;;;;;5.45;2.42;;;12.40;99.90;;;;;;5070146;28;20036;-70
2021/12/31 08:06:46;;;;;;;6.80;2.35;;;12.40;99.90;;;;;;5081146;28;20450;-70
2021/12/31 08:09:12;;;;;;;8.38;2.70;;;12.40;99.90;;;;;;5071078;28;20048;-70
2021/12/31 08:11:37;;;;;;;5.07;1.80;;;12.40;99.90;;;;;;5100438;28;20040;-70
2021/12/31 08:14:04;;;;;;;7.00;2.50;;;12.50;99.90;;;;;;5066364;28;20047;-70
2021/12/31 08:16:30;;;;;;;8.63;3.20;;;12.50;99.90;;;;;;5089310;28;20078;-70
2021/12/31 08:18:55;;;;;;;4.38;2.40;;;12.50;99.90;;;;;;5084729;28;20071;-70
2021/12/31 08:21:21;;;;;;;6.72;2.67;;;12.50;99.90;;;;;;5082115;28;20446;-70
2021/12/31 08:23:47;;;;;;;6.53;2.38;;;12.60;99.90;;;;;;5082764;28;20051;-70
2021/12/31 08:26:12;;;;;;;4.68;2.13;;;12.50;99.90;;;;;;5085653;28;20396;-70
2021/12/31 08:28:38;;;;;;;7.85;2.33;;;12.70;99.90;;;;;;5089575;28;20791;-70
2021/12/31 08:31:04;;;;;;;7.35;2.88;;;12.70;99.90;;;;;;5089289;28;20108;-71
2021/12/31 08:33:30;;;;;;;4.03;2.08;;;12.70;99.90;;;;;;5105632;28;20032;-70
2021/12/31 08:35:55;;;;;;;4.70;2.20;;;12.70;99.90;;;;;;5103937;28;20051;-71
2021/12/31 08:38:22;;;;;;;4.20;2.00;;;12.70;99.90;;;;;;5105980;28;20048;-74
2021/12/31 08:40:48;;;;;;;5.72;1.90;;;12.70;99.90;;;;;;5103531;28;20438;-70
2021/12/31 08:43:14;;;;;;;5.47;1.98;;;12.70;99.90;;;;;;5070195;28;20076;-71
2021/12/31 08:45:40;;;;;;;6.43;2.50;;;13.10;99.90;;;;;;5080910;28;20047;-71
2021/12/31 08:48:05;;;;;;;3.95;2.00;;;12.70;99.90;;;;;;5086449;28;20525;-70
2021/12/31 08:50:33;;;;;;;5.57;2.20;;;12.70;99.90;;;;;;5097203;28;20036;-71
2021/12/31 08:52:59;;;;;;;5.95;2.00;;;12.70;99.90;;;;;;5100591;28;20102;-70
2021/12/31 08:55:24;;;;;;;6.72;2.47;;;12.80;99.90;;;;;;5103471;28;20447;-70
2021/12/31 08:57:51;;;;;;;4.35;2.20;;;12.80;99.90;;;;;;5101365;28;20067;-71
2021/12/31 09:00:17;;;;;;;6.07;2.35;;;12.80;99.90;;;;;;5085617;28;20063;-70
2021/12/31 09:02:45;;;;;;;4.43;2.13;;;12.90;99.90;;;;;;5071159;28;20028;-70
2021/12/31 09:05:11;;;;;;;4.68;1.92;;;12.90;99.90;;;;;;5102956;28;20040;-70
2021/12/31 09:07:37;;;;;;;5.38;2.20;;;12.90;99.90;;;;;;5102144;28;20051;-70
2021/12/31 09:10:04;;;;;;;6.13;3.30;;;12.90;99.90;;;;;;5103253;27;20040;-70
2021/12/31 09:12:30;;;;;;;3.50;2.35;;;12.90;99.90;;;;;;5086219;28;20123;-70
2021/12/31 09:14:56;;;;;;;5.35;2.40;;;13.00;99.90;;;;;;5088487;28;20134;-71
2021/12/31 09:17:25;;;;;;;4.78;2.38;;;12.90;99.90;;;;;;5083245;28;20395;-70
2021/12/31 09:19:51;;;;;;;5.40;2.60;;;13.00;99.90;;;;;;5100836;28;20119;-71
2021/12/31 09:22:17;;;;;;;7.82;2.70;;;12.90;99.90;;;;;;5096898;28;20459;-70
2021/12/31 09:24:42;;;;;;;5.95;2.15;;;13.00;99.90;;;;;;5077564;28;20032;-70
2021/12/31 09:27:08;;;;;;;6.40;2.83;;;12.70;99.90;;;;;;5084559;28;20146;-70
2021/12/31 09:29:34;;;;;;;9.40;2.50;;;13.00;99.90;;;;;;5104659;28;20040;-70
2021/12/31 09:32:00;;;;;;;4.82;2.08;;;12.90;99.90;;;;;;5085389;28;20387;-70
2021/12/31 09:34:26;;;;;;;7.32;2.53;;;12.90;99.90;;;;;;5074129;28;20048;-70
2021/12/31 09:36:52;;;;;;;6.32;3.70;;;12.90;99.90;;;;;;5089283;28;20040;-70
2021/12/31 09:39:17;;;;;;;5.57;2.15;;;12.90;99.90;;;;;;5106377;28;20132;-70
2021/12/31 09:41:44;;;;;;;7.05;3.13;;;12.90;99.90;;;;;;5076242;28;20074;-70
2021/12/31 09:44:14;;;;;;;5.40;2.30;;;13.00;99.90;;;;;;5082609;28;20142;-70
2021/12/31 09:46:40;;;;;;;6.45;2.88;;;13.00;99.90;;;;;;5104229;28;20061;-70
2021/12/31 09:49:06;;;;;;;7.45;2.65;;;13.00;99.90;;;;;;5089028;28;20035;-70
2021/12/31 09:51:33;;;;;;;7.22;2.45;;;13.00;99.90;;;;;;5103964;28;20039;-70
2021/12/31 09:54:00;;;;;;;7.97;2.70;;;13.00;99.90;;;;;;5070213;28;20029;-70
2021/12/31 09:56:29;;;;;;;8.13;4.40;;;13.10;99.90;;;;;;5085023;28;20047;-70
2021/12/31 09:58:55;;;;;;;3.95;2.13;;;13.00;99.90;;;;;;5087563;28;20071;-70
2021/12/31 10:01:21;;;;;;;5.88;2.67;;;13.00;99.90;;;;;;5078266;28;20692;-70
2021/12/31 10:03:57;;;;;;;5.00;3.00;;;13.00;99.90;;;;;;5100870;28;20063;-70
2021/12/31 10:06:24;;;;;;;6.72;2.35;;;13.00;99.90;;;;;;5103917;28;20073;-70
2021/12/31 10:08:50;;;;;;;6.28;2.55;;;12.90;99.90;;;;;;5086478;28;20040;-70
2021/12/31 10:11:19;;;;;;;5.10;2.35;;;12.90;99.90;;;;;;5087668;28;20542;-70
2021/12/31 10:13:51;;;;;;;6.85;3.33;;;13.00;99.90;;;;;;5100198;28;20023;-70
2021/12/31 10:16:32;;;;;;;5.18;2.45;;;12.90;99.90;;;;;;5080283;28;20134;-70
2021/12/31 10:19:10;;;;;;;6.85;2.60;;;12.90;99.90;;;;;;5061200;28;20040;-70
2021/12/31 10:21:41;;;;;;;5.15;2.35;;;12.90;99.90;;;;;;5084035;28;20044;-69
2021/12/31 10:24:20;;;;;;;5.32;2.40;;;12.80;99.90;;;;;;5080763;28;20066;-70
2021/12/31 10:26:46;;;;;;;4.18;2.25;;;12.80;99.90;;;;;;5086522;28;20118;-70
2021/12/31 10:29:13;;;;;;;6.70;2.50;;;12.90;99.90;;;;;;5098954;28;20036;-70
2021/12/31 10:31:47;;;;;;;10.05;2.88;;;12.90;99.90;;;;;;5084362;28;20044;-69
2021/12/31 10:34:32;;;;;;;5.70;2.33;;;12.90;99.90;;;;;;5078676;28;20028;-69
2021/12/31 10:37:02;;;;;;;5.43;2.30;;;12.90;99.90;;;;;;5082968;28;20048;-69
2021/12/31 10:39:32;;;;;;;6.20;2.97;;;13.00;99.90;;;;;;5083663;28;20043;-69
2021/12/31 10:42:05;;;;;;;7.32;3.13;;;12.90;99.90;;;;;;5082788;28;20040;-70
2021/12/31 10:44:41;;;;;;;6.25;2.47;;;12.90;99.90;;;;;;5080393;28;20047;-69
2021/12/31 10:47:09;;;;;;;6.07;2.45;;;12.90;99.90;;;;;;5100543;28;20036;-69
2021/12/31 10:50:06;;;;;;;4.75;2.42;;;12.90;99.90;;;;;;5098554;28;20051;-70
2021/12/31 10:52:41;;;;;;;5.63;2.55;;;12.80;99.90;;;;;;5081615;28;20697;-70
2021/12/31 10:57:43;;;;;;;5.78;2.47;;;12.80;99.90;;;;;;5080710;28;20130;-69
2021/12/31 11:00:11;;;;;;;8.70;2.58;;;12.80;99.90;;;;;;5085158;28;20040;-70
2021/12/31 11:02:38;;;;;;;7.47;3.17;;;12.80;99.90;;;;;;5100361;28;21413;-70
2021/12/31 11:05:05;;;;;;;6.60;2.50;;;12.90;99.90;;;;;;5105678;28;20031;-70
2021/12/31 11:07:31;;;;;;;5.63;3.22;;;12.80;99.90;;;;;;5086710;28;20096;-69
2021/12/31 11:10:04;;;;;;;6.45;2.60;;;12.80;99.90;;;;;;5098795;28;20036;-70
2021/12/31 11:12:32;;;;;;;7.97;3.03;;;12.80;99.90;;;;;;5105125;28;20039;-70
2021/12/31 11:14:58;;;;;;;6.75;3.03;;;12.70;99.90;;;;;;5082983;28;20062;-70
2021/12/31 11:17:24;;;;;;;6.10;3.00;;;12.70;99.90;;;;;;5102734;28;20032;-69
2021/12/31 11:19:51;;;;;;;5.63;3.47;;;12.70;99.90;;;;;;5080080;28;20035;-70
2021/12/31 11:22:28;;;;;;;5.15;3.28;;;12.60;99.90;;;;;;5102124;28;20036;-70
2021/12/31 11:25:14;;;;;;;8.57;3.65;;;12.60;99.90;;;;;;5080044;28;20105;-70
2021/12/31 11:27:44;;;;;;;6.22;3.53;;;12.50;99.90;;;;;;5093992;28;20771;-69
2021/12/31 11:30:32;;;;;;;6.07;3.17;;;12.40;99.90;;;;;;5081771;28;20040;-69
2021/12/31 11:33:20;;;;;;;8.10;4.20;;;12.30;99.90;;;;;;5096066;28;20055;-69
2021/12/31 11:36:05;;;;;;;7.53;4.07;;;12.30;99.90;;;;;;5098095;28;20101;-69
2021/12/31 11:38:30;;;;;;;9.15;4.78;;;12.20;99.90;;;;;;5102743;28;20563;-69
2021/12/31 11:41:19;;;;;;;71.60;44.00;;;12.40;99.90;;;;;;5100230;28;20044;-69
2021/12/31 11:44:06;;;;;;;12.93;6.05;;;12.10;99.90;;;;;;5079134;28;20108;-69
2021/12/31 11:46:34;;;;;;;9.88;4.50;;;12.10;99.90;;;;;;5098927;28;20032;-69
2021/12/31 11:49:01;;;;;;;7.53;4.55;;;12.00;99.90;;;;;;5080066;28;20044;-69
2021/12/31 11:51:29;;;;;;;8.63;5.22;;;12.00;99.90;;;;;;5096084;28;20073;-69
2021/12/31 11:54:00;;;;;;;8.63;5.93;;;12.00;99.90;;;;;;5065831;28;20039;-69
2021/12/31 11:56:47;;;;;;;11.95;8.70;;;12.00;99.90;;;;;;5100012;28;20039;-69
2021/12/31 11:59:16;;;;;;;13.30;7.65;;;12.00;99.90;;;;;;5079893;28;20043;-69
2021/12/31 12:01:47;;;;;;;6.93;4.95;;;12.00;99.90;;;;;;5097439;28;20048;-70
2021/12/31 12:04:26;;;;;;;;;;;11.90;99.90;;;;;;5086410;28;20059;-70
2021/12/31 12:07:04;;;;;;;8.23;4.63;;;12.00;99.90;;;;;;5104201;28;19923;-70
2021/12/31 12:09:35;;;;;;;11.43;4.32;;;11.90;99.90;;;;;;5085939;28;20039;-70
2021/12/31 12:12:08;;;;;;;12.02;5.53;;;11.90;99.90;;;;;;5085619;28;20097;-69
2021/12/31 12:14:48;;;;;;;12.63;6.22;;;11.90;99.90;;;;;;5098420;28;20042;-69
2021/12/31 12:17:39;;;;;;;18.73;7.15;;;11.80;99.90;;;;;;5082008;28;20036;-69
2021/12/31 12:20:05;;;;;;;;;;;11.70;99.90;;;;;;5075988;28;20036;-69
2021/12/31 12:22:33;;;;;;;10.35;6.22;;;11.70;99.90;;;;;;5082158;28;19920;-69
2021/12/31 12:25:09;;;;;;;11.98;5.38;;;11.60;99.90;;;;;;5085488;28;20035;-69
2021/12/31 12:27:35;;;;;;;11.23;6.55;;;11.60;99.90;;;;;;5098450;28;20124;-69
2021/12/31 12:30:04;;;;;;;11.95;5.53;;;11.50;99.90;;;;;;5080118;28;20047;-69
2021/12/31 12:32:35;;;;;;;12.45;5.43;;;11.50;99.90;;;;;;5103245;28;20089;-69
2021/12/31 12:35:30;;;;;;;9.70;5.53;;;11.50;99.90;;;;;;5083302;28;20440;-69
2021/12/31 12:38:04;;;;;;;11.60;6.30;;;11.50;99.90;;;;;;5083848;28;20059;-69
2021/12/31 12:40:45;;;;;;;10.50;6.03;;;11.50;99.90;;;;;;5083850;28;20046;-69
2021/12/31 12:43:21;;;;;;;13.90;7.20;;;11.50;99.90;;;;;;5086891;28;20131;-69
2021/12/31 12:45:50;;;;;;;15.60;8.00;;;11.50;99.90;;;;;;5081841;28;20048;-69
2021/12/31 12:48:17;;;;;;;11.65;7.78;;;11.40;99.90;;;;;;5096004;28;20048;-69
2021/12/31 12:50:50;;;;;;;12.43;6.90;;;11.40;99.90;;;;;;5078588;28;20060;-69
2021/12/31 12:53:21;;;;;;;11.98;7.43;;;11.40;99.90;;;;;;5080736;28;20040;-69
2021/12/31 12:55:46;;;;;;;15.18;7.65;;;11.40;99.90;;;;;;5077854;28;20452;-69